sensor_id;sensor_type;location;lat;lon;timestamp;pressure;altitude;pressure_sealevel;temperature;humidity
57859;BME280;49153;45.568;11.894;2022-11-23T00:03:46;99667.31;;;8.34;98.10
57859;BME280;49153;45.568;11.894;2022-11-23T00:06:12;99664.19;;;8.29;97.87
57859;BME280;49153;45.568;11.894;2022-11-23T00:08:38;99689.66;;;8.40;98.37
57859;BME280;49153;45.568;11.894;2022-11-23T00:11:04;99676.75;;;8.37;98.49
57859;BME280;49153;45.568;11.894;2022-11-23T00:13:29;99683.78;;;8.36;98.67
57859;BME280;49153;45.568;11.894;2022-11-23T00:15:55;99668.81;;;8.26;98.08
57859;BME280;49153;45.568;11.894;2022-11-23T00:18:20;99680.81;;;8.30;98.20
57859;BME280;49153;45.568;11.894;2022-11-23T00:20:46;99712.78;;;8.46;98.48
57859;BME280;49153;45.568;11.894;2022-11-23T00:23:11;99682.47;;;8.31;98.71
57859;BME280;49153;45.568;11.894;2022-11-23T00:25:36;99704.56;;;8.51;98.81
57859;BME280;49153;45.568;11.894;2022-11-23T00:28:02;99709.34;;;8.45;98.19
57859;BME280;49153;45.568;11.894;2022-11-23T00:30:27;99688.72;;;8.30;98.48
57859;BME280;49153;45.568;11.894;2022-11-23T00:32:54;99704.22;;;8.33;98.66
57859;BME280;49153;45.568;11.894;2022-11-23T00:35:20;99719.50;;;8.39;98.58
57859;BME280;49153;45.568;11.894;2022-11-23T00:37:45;99719.63;;;8.37;98.81
57859;BME280;49153;45.568;11.894;2022-11-23T00:40:11;99702.53;;;8.32;98.43
57859;BME280;49153;45.568;11.894;2022-11-23T00:42:37;99704.94;;;8.35;98.85
57859;BME280;49153;45.568;11.894;2022-11-23T00:45:02;99695.25;;;8.35;98.80
57859;BME280;49153;45.568;11.894;2022-11-23T00:47:28;99718.03;;;8.46;98.80
57859;BME280;49153;45.568;11.894;2022-11-23T00:49:53;99692.97;;;8.31;98.62
57859;BME280;49153;45.568;11.894;2022-11-23T00:52:19;99688.41;;;8.22;98.37
57859;BME280;49153;45.568;11.894;2022-11-23T00:54:44;99706.00;;;8.32;99.34
57859;BME280;49153;45.568;11.894;2022-11-23T00:57:09;99711.38;;;8.31;99.39
57859;BME280;49153;45.568;11.894;2022-11-23T00:59:35;99707.69;;;8.33;99.39
57859;BME280;49153;45.568;11.894;2022-11-23T01:02:01;99708.53;;;8.34;99.23
57859;BME280;49153;45.568;11.894;2022-11-23T01:04:26;99714.72;;;8.33;98.99
57859;BME280;49153;45.568;11.894;2022-11-23T01:06:55;99715.94;;;8.40;99.57
57859;BME280;49153;45.568;11.894;2022-11-23T01:09:24;99705.06;;;8.33;99.65
57859;BME280;49153;45.568;11.894;2022-11-23T01:11:54;99723.09;;;8.49;99.82
57859;BME280;49153;45.568;11.894;2022-11-23T01:14:20;99721.19;;;8.51;99.23
57859;BME280;49153;45.568;11.894;2022-11-23T01:16:46;99711.16;;;8.45;99.40
57859;BME280;49153;45.568;11.894;2022-11-23T01:19:13;99715.19;;;8.49;99.33
57859;BME280;49153;45.568;11.894;2022-11-23T01:21:39;99709.94;;;8.49;99.55
57859;BME280;49153;45.568;11.894;2022-11-23T01:24:07;99709.47;;;8.44;98.74
57859;BME280;49153;45.568;11.894;2022-11-23T01:26:33;99704.44;;;8.41;98.79
57859;BME280;49153;45.568;11.894;2022-11-23T01:28:59;99711.63;;;8.39;98.68
57859;BME280;49153;45.568;11.894;2022-11-23T01:31:24;99713.06;;;8.43;98.40
57859;BME280;49153;45.568;11.894;2022-11-23T01:33:57;99731.19;;;8.57;98.59
57859;BME280;49153;45.568;11.894;2022-11-23T01:36:27;99735.75;;;8.55;98.32
57859;BME280;49153;45.568;11.894;2022-11-23T01:38:53;99724.97;;;8.47;98.91
57859;BME280;49153;45.568;11.894;2022-11-23T01:41:22;99732.88;;;8.58;98.80
57859;BME280;49153;45.568;11.894;2022-11-23T01:43:48;99707.06;;;8.41;97.92
57859;BME280;49153;45.568;11.894;2022-11-23T01:46:14;99714.00;;;8.42;98.11
57859;BME280;49153;45.568;11.894;2022-11-23T01:51:35;99718.09;;;8.35;97.78
57859;BME280;49153;45.568;11.894;2022-11-23T01:54:06;99715.31;;;8.36;98.11
57859;BME280;49153;45.568;11.894;2022-11-23T01:56:35;99732.28;;;8.43;97.85
57859;BME280;49153;45.568;11.894;2022-11-23T01:59:03;99723.56;;;8.43;98.15
57859;BME280;49153;45.568;11.894;2022-11-23T02:01:32;99719.72;;;8.36;98.10
57859;BME280;49153;45.568;11.894;2022-11-23T02:04:00;99702.50;;;8.21;97.94
57859;BME280;49153;45.568;11.894;2022-11-23T02:06:26;99736.47;;;8.35;97.94
57859;BME280;49153;45.568;11.894;2022-11-23T02:08:52;99738.63;;;8.30;97.65
57859;BME280;49153;45.568;11.894;2022-11-23T02:11:18;99727.25;;;8.18;97.97
57859;BME280;49153;45.568;11.894;2022-11-23T02:13:44;99734.28;;;8.18;98.34
57859;BME280;49153;45.568;11.894;2022-11-23T02:16:12;99753.16;;;8.23;98.34
57859;BME280;49153;45.568;11.894;2022-11-23T02:18:40;99747.88;;;8.12;98.58
57859;BME280;49153;45.568;11.894;2022-11-23T02:21:07;99759.97;;;8.14;98.78
57859;BME280;49153;45.568;11.894;2022-11-23T02:23:57;99766.75;;;8.17;98.72
57859;BME280;49153;45.568;11.894;2022-11-23T02:26:30;99755.38;;;8.05;98.78
57859;BME280;49153;45.568;11.894;2022-11-23T02:31:31;99779.88;;;8.17;99.08
57859;BME280;49153;45.568;11.894;2022-11-23T02:33:56;99782.50;;;8.17;99.17
57859;BME280;49153;45.568;11.894;2022-11-23T02:36:31;99789.19;;;8.21;98.86
57859;BME280;49153;45.568;11.894;2022-11-23T02:39:00;99785.38;;;8.14;99.10
57859;BME280;49153;45.568;11.894;2022-11-23T02:41:37;99792.53;;;8.12;99.20
57859;BME280;49153;45.568;11.894;2022-11-23T02:44:03;99783.81;;;8.11;99.14
57859;BME280;49153;45.568;11.894;2022-11-23T02:46:31;99788.47;;;8.07;99.15
57859;BME280;49153;45.568;11.894;2022-11-23T02:48:56;99794.44;;;8.10;98.66
57859;BME280;49153;45.568;11.894;2022-11-23T02:51:21;99807.34;;;8.13;99.17
57859;BME280;49153;45.568;11.894;2022-11-23T02:53:47;99802.94;;;8.13;99.16
57859;BME280;49153;45.568;11.894;2022-11-23T02:56:12;99804.47;;;8.16;99.09
57859;BME280;49153;45.568;11.894;2022-11-23T02:58:37;99827.75;;;8.20;99.35
57859;BME280;49153;45.568;11.894;2022-11-23T03:01:03;99813.31;;;8.15;99.17
57859;BME280;49153;45.568;11.894;2022-11-23T03:03:28;99804.22;;;8.07;98.86
57859;BME280;49153;45.568;11.894;2022-11-23T03:05:54;99824.53;;;8.17;98.91
57859;BME280;49153;45.568;11.894;2022-11-23T03:08:20;99828.34;;;8.13;99.27
57859;BME280;49153;45.568;11.894;2022-11-23T03:10:45;99801.97;;;8.03;98.54
57859;BME280;49153;45.568;11.894;2022-11-23T03:13:11;99813.66;;;8.10;98.82
57859;BME280;49153;45.568;11.894;2022-11-23T03:15:36;99830.53;;;8.19;99.11
57859;BME280;49153;45.568;11.894;2022-11-23T03:18:01;99820.47;;;8.13;99.32
57859;BME280;49153;45.568;11.894;2022-11-23T03:20:27;99814.00;;;8.05;99.11
57859;BME280;49153;45.568;11.894;2022-11-23T03:22:52;99831.19;;;8.10;98.83
57859;BME280;49153;45.568;11.894;2022-11-23T03:25:18;99837.44;;;8.09;98.53
57859;BME280;49153;45.568;11.894;2022-11-23T03:27:43;99839.06;;;8.10;98.84
57859;BME280;49153;45.568;11.894;2022-11-23T03:30:09;99853.69;;;8.14;98.94
57859;BME280;49153;45.568;11.894;2022-11-23T03:32:35;99846.97;;;8.10;98.72
57859;BME280;49153;45.568;11.894;2022-11-23T03:35:01;99834.53;;;8.00;99.32
57859;BME280;49153;45.568;11.894;2022-11-23T03:37:27;99837.25;;;7.99;98.88
57859;BME280;49153;45.568;11.894;2022-11-23T03:39:52;99848.88;;;8.07;98.68
57859;BME280;49153;45.568;11.894;2022-11-23T03:42:18;99853.75;;;8.01;98.82
57859;BME280;49153;45.568;11.894;2022-11-23T03:44:43;99830.91;;;7.90;99.00
57859;BME280;49153;45.568;11.894;2022-11-23T03:47:09;99841.31;;;7.92;99.27
57859;BME280;49153;45.568;11.894;2022-11-23T03:49:35;99847.16;;;7.95;99.20
57859;BME280;49153;45.568;11.894;2022-11-23T03:52:00;99854.69;;;8.00;99.02
57859;BME280;49153;45.568;11.894;2022-11-23T03:54:26;99848.84;;;7.96;99.16
57859;BME280;49153;45.568;11.894;2022-11-23T03:56:51;99859.00;;;8.01;98.76
57859;BME280;49153;45.568;11.894;2022-11-23T03:59:16;99848.09;;;7.94;99.14
57859;BME280;49153;45.568;11.894;2022-11-23T04:01:42;99860.06;;;7.98;99.08
57859;BME280;49153;45.568;11.894;2022-11-23T04:04:07;99859.44;;;7.95;99.01
57859;BME280;49153;45.568;11.894;2022-11-23T04:06:33;99845.94;;;7.88;98.75
57859;BME280;49153;45.568;11.894;2022-11-23T04:08:58;99854.06;;;7.85;99.11
57859;BME280;49153;45.568;11.894;2022-11-23T04:11:24;99858.47;;;7.85;99.39
57859;BME280;49153;45.568;11.894;2022-11-23T04:13:49;99865.50;;;7.84;98.95
57859;BME280;49153;45.568;11.894;2022-11-23T04:16:15;99848.53;;;7.77;99.21
57859;BME280;49153;45.568;11.894;2022-11-23T04:18:40;99853.25;;;7.72;99.34
57859;BME280;49153;45.568;11.894;2022-11-23T04:21:06;99847.22;;;7.72;99.67
57859;BME280;49153;45.568;11.894;2022-11-23T04:23:31;99853.06;;;7.75;99.48
57859;BME280;49153;45.568;11.894;2022-11-23T04:25:57;99864.78;;;7.82;99.74
57859;BME280;49153;45.568;11.894;2022-11-23T04:28:22;99861.53;;;7.79;99.42
57859;BME280;49153;45.568;11.894;2022-11-23T04:30:48;99838.00;;;7.66;99.82
57859;BME280;49153;45.568;11.894;2022-11-23T04:33:13;99849.00;;;7.71;99.44
57859;BME280;49153;45.568;11.894;2022-11-23T04:35:39;99875.06;;;7.85;99.36
57859;BME280;49153;45.568;11.894;2022-11-23T04:38:04;99874.31;;;7.83;99.48
57859;BME280;49153;45.568;11.894;2022-11-23T04:40:30;99873.22;;;7.75;99.41
57859;BME280;49153;45.568;11.894;2022-11-23T04:42:56;99867.38;;;7.71;99.62
57859;BME280;49153;45.568;11.894;2022-11-23T04:45:22;99867.38;;;7.71;99.56
57859;BME280;49153;45.568;11.894;2022-11-23T04:47:47;99872.38;;;7.74;99.77
57859;BME280;49153;45.568;11.894;2022-11-23T04:50:13;99865.44;;;7.73;99.72
57859;BME280;49153;45.568;11.894;2022-11-23T04:52:38;99887.25;;;7.86;99.59
57859;BME280;49153;45.568;11.894;2022-11-23T04:55:04;99890.56;;;7.88;99.72
57859;BME280;49153;45.568;11.894;2022-11-23T04:57:29;99882.19;;;7.83;99.29
57859;BME280;49153;45.568;11.894;2022-11-23T04:59:55;99870.34;;;7.78;99.33
57859;BME280;49153;45.568;11.894;2022-11-23T05:02:20;99884.63;;;7.86;99.35
57859;BME280;49153;45.568;11.894;2022-11-23T05:04:45;99879.47;;;7.85;99.18
57859;BME280;49153;45.568;11.894;2022-11-23T05:07:11;99863.13;;;7.81;99.28
57859;BME280;49153;45.568;11.894;2022-11-23T05:09:36;99888.44;;;7.93;99.38
57859;BME280;49153;45.568;11.894;2022-11-23T05:12:02;99893.59;;;7.95;98.96
57859;BME280;49153;45.568;11.894;2022-11-23T05:14:27;99879.84;;;7.91;98.74
57859;BME280;49153;45.568;11.894;2022-11-23T05:16:53;99880.22;;;7.87;98.69
57859;BME280;49153;45.568;11.894;2022-11-23T05:19:18;99878.41;;;7.87;98.91
57859;BME280;49153;45.568;11.894;2022-11-23T05:21:44;99890.38;;;7.91;98.26
57859;BME280;49153;45.568;11.894;2022-11-23T05:24:09;99883.03;;;7.84;98.19
57859;BME280;49153;45.568;11.894;2022-11-23T05:26:35;99897.94;;;7.83;98.42
57859;BME280;49153;45.568;11.894;2022-11-23T05:29:00;99879.75;;;7.69;98.50
57859;BME280;49153;45.568;11.894;2022-11-23T05:31:25;99903.44;;;7.80;98.78
57859;BME280;49153;45.568;11.894;2022-11-23T05:33:51;99904.38;;;7.79;98.51
57859;BME280;49153;45.568;11.894;2022-11-23T05:36:16;99905.47;;;7.88;98.56
57859;BME280;49153;45.568;11.894;2022-11-23T05:38:42;99905.13;;;7.81;98.74
57859;BME280;49153;45.568;11.894;2022-11-23T05:41:08;99920.44;;;7.87;98.32
57859;BME280;49153;45.568;11.894;2022-11-23T05:43:33;99906.91;;;7.81;98.58
57859;BME280;49153;45.568;11.894;2022-11-23T05:46:00;99914.53;;;7.84;98.39
57859;BME280;49153;45.568;11.894;2022-11-23T05:48:25;99911.22;;;7.82;98.35
57859;BME280;49153;45.568;11.894;2022-11-23T05:50:51;99918.34;;;7.80;98.52
57859;BME280;49153;45.568;11.894;2022-11-23T05:53:16;99910.38;;;7.81;98.31
57859;BME280;49153;45.568;11.894;2022-11-23T05:55:42;99929.47;;;7.83;98.48
57859;BME280;49153;45.568;11.894;2022-11-23T05:58:07;99908.94;;;7.77;98.30
57859;BME280;49153;45.568;11.894;2022-11-23T06:00:33;99919.19;;;7.80;98.44
57859;BME280;49153;45.568;11.894;2022-11-23T06:02:59;99917.75;;;7.76;98.29
57859;BME280;49153;45.568;11.894;2022-11-23T06:05:25;99917.09;;;7.73;98.09
57859;BME280;49153;45.568;11.894;2022-11-23T06:07:51;99915.47;;;7.72;98.72
57859;BME280;49153;45.568;11.894;2022-11-23T06:10:18;99913.63;;;7.72;98.42
57859;BME280;49153;45.568;11.894;2022-11-23T06:12:43;99917.34;;;7.70;98.41
57859;BME280;49153;45.568;11.894;2022-11-23T06:15:10;99914.38;;;7.74;98.38
57859;BME280;49153;45.568;11.894;2022-11-23T06:17:35;99935.53;;;7.84;97.99
57859;BME280;49153;45.568;11.894;2022-11-23T06:20:01;99938.31;;;7.82;98.05
57859;BME280;49153;45.568;11.894;2022-11-23T06:22:26;99930.75;;;7.78;97.68
57859;BME280;49153;45.568;11.894;2022-11-23T06:24:52;99919.47;;;7.64;97.10
57859;BME280;49153;45.568;11.894;2022-11-23T06:27:17;99940.22;;;7.68;97.26
57859;BME280;49153;45.568;11.894;2022-11-23T06:29:43;99936.06;;;7.65;97.29
57859;BME280;49153;45.568;11.894;2022-11-23T06:32:08;99934.81;;;7.58;97.24
57859;BME280;49153;45.568;11.894;2022-11-23T06:34:34;99929.78;;;7.55;96.63
57859;BME280;49153;45.568;11.894;2022-11-23T06:36:59;99943.84;;;7.54;97.49
57859;BME280;49153;45.568;11.894;2022-11-23T06:39:25;99943.53;;;7.46;97.20
57859;BME280;49153;45.568;11.894;2022-11-23T06:41:51;99945.13;;;7.36;97.09
57859;BME280;49153;45.568;11.894;2022-11-23T06:44:17;99952.16;;;7.35;97.51
57859;BME280;49153;45.568;11.894;2022-11-23T06:46:42;99964.25;;;7.38;97.19
57859;BME280;49153;45.568;11.894;2022-11-23T06:49:07;99958.59;;;7.31;97.43
57859;BME280;49153;45.568;11.894;2022-11-23T06:51:33;99970.00;;;7.30;97.24
57859;BME280;49153;45.568;11.894;2022-11-23T06:53:58;99966.34;;;7.20;97.15
57859;BME280;49153;45.568;11.894;2022-11-23T06:56:24;99964.47;;;7.09;97.27
57859;BME280;49153;45.568;11.894;2022-11-23T06:58:49;99997.84;;;7.20;97.73
57859;BME280;49153;45.568;11.894;2022-11-23T07:01:15;99978.13;;;7.02;97.39
57859;BME280;49153;45.568;11.894;2022-11-23T07:03:40;99986.44;;;7.08;98.01
57859;BME280;49153;45.568;11.894;2022-11-23T07:06:07;100000.88;;;7.14;97.90
57859;BME280;49153;45.568;11.894;2022-11-23T07:08:34;100012.94;;;7.16;98.23
57859;BME280;49153;45.568;11.894;2022-11-23T07:11:03;100012.13;;;7.16;98.05
57859;BME280;49153;45.568;11.894;2022-11-23T07:13:31;100008.34;;;7.07;97.92
57859;BME280;49153;45.568;11.894;2022-11-23T07:15:57;100029.63;;;7.15;98.25
57859;BME280;49153;45.568;11.894;2022-11-23T07:18:24;100011.28;;;7.03;98.60
57859;BME280;49153;45.568;11.894;2022-11-23T07:20:49;100029.84;;;7.12;98.32
57859;BME280;49153;45.568;11.894;2022-11-23T07:23:15;100027.41;;;7.09;98.61
57859;BME280;49153;45.568;11.894;2022-11-23T07:25:40;100040.97;;;7.16;98.87
57859;BME280;49153;45.568;11.894;2022-11-23T07:28:06;100038.56;;;7.13;98.79
57859;BME280;49153;45.568;11.894;2022-11-23T07:30:34;100038.16;;;7.19;99.40
57859;BME280;49153;45.568;11.894;2022-11-23T07:33:05;100041.59;;;7.19;99.25
57859;BME280;49153;45.568;11.894;2022-11-23T07:35:32;100038.44;;;7.14;99.23
57859;BME280;49153;45.568;11.894;2022-11-23T07:37:59;100037.41;;;7.17;99.41
57859;BME280;49153;45.568;11.894;2022-11-23T07:40:25;100061.00;;;7.30;100.00
57859;BME280;49153;45.568;11.894;2022-11-23T07:42:51;100047.34;;;7.25;100.00
57859;BME280;49153;45.568;11.894;2022-11-23T07:45:16;100032.69;;;7.22;100.00
57859;BME280;49153;45.568;11.894;2022-11-23T07:47:42;100058.78;;;7.36;100.00
57859;BME280;49153;45.568;11.894;2022-11-23T07:50:10;100042.44;;;7.33;100.00
57859;BME280;49153;45.568;11.894;2022-11-23T07:52:38;100052.50;;;7.39;100.00
57859;BME280;49153;45.568;11.894;2022-11-23T07:55:04;100055.66;;;7.44;100.00
57859;BME280;49153;45.568;11.894;2022-11-23T07:57:30;100066.78;;;7.60;100.00
57859;BME280;49153;45.568;11.894;2022-11-23T07:59:55;100075.16;;;7.65;100.00
57859;BME280;49153;45.568;11.894;2022-11-23T08:02:21;100059.41;;;7.65;100.00
57859;BME280;49153;45.568;11.894;2022-11-23T08:04:46;100074.41;;;7.76;100.00
57859;BME280;49153;45.568;11.894;2022-11-23T08:07:12;100070.72;;;7.78;100.00
57859;BME280;49153;45.568;11.894;2022-11-23T08:09:37;100064.94;;;7.86;100.00
57859;BME280;49153;45.568;11.894;2022-11-23T08:12:03;100070.78;;;8.02;100.00
57859;BME280;49153;45.568;11.894;2022-11-23T08:14:29;100083.66;;;8.18;100.00
57859;BME280;49153;45.568;11.894;2022-11-23T08:16:54;100073.88;;;8.20;100.00
57859;BME280;49153;45.568;11.894;2022-11-23T08:19:20;100082.06;;;8.28;100.00
57859;BME280;49153;45.568;11.894;2022-11-23T08:21:45;100066.94;;;8.31;100.00
57859;BME280;49153;45.568;11.894;2022-11-23T08:24:11;100083.69;;;8.41;99.81
57859;BME280;49153;45.568;11.894;2022-11-23T08:26:36;100104.44;;;8.57;99.57
57859;BME280;49153;45.568;11.894;2022-11-23T08:29:03;100104.66;;;8.67;99.69
57859;BME280;49153;45.568;11.894;2022-11-23T08:31:28;100089.19;;;8.62;98.81
57859;BME280;49153;45.568;11.894;2022-11-23T08:33:54;100084.41;;;8.67;99.38
57859;BME280;49153;45.568;11.894;2022-11-23T08:36:19;100078.72;;;8.73;99.55
57859;BME280;49153;45.568;11.894;2022-11-23T08:38:45;100093.97;;;8.92;99.53
57859;BME280;49153;45.568;11.894;2022-11-23T08:41:10;100082.53;;;9.04;100.00
57859;BME280;49153;45.568;11.894;2022-11-23T08:43:36;100098.22;;;9.17;99.39
57859;BME280;49153;45.568;11.894;2022-11-23T08:46:03;100098.16;;;9.29;98.98
57859;BME280;49153;45.568;11.894;2022-11-23T08:48:29;100102.13;;;9.35;97.53
57859;BME280;49153;45.568;11.894;2022-11-23T08:50:57;100113.38;;;9.48;97.39
57859;BME280;49153;45.568;11.894;2022-11-23T08:53:23;100094.94;;;9.37;97.45
57859;BME280;49153;45.568;11.894;2022-11-23T08:55:49;100122.50;;;9.66;95.35
57859;BME280;49153;45.568;11.894;2022-11-23T08:58:14;100109.91;;;9.59;97.26
57859;BME280;49153;45.568;11.894;2022-11-23T09:00:40;100107.66;;;9.65;97.33
57859;BME280;49153;45.568;11.894;2022-11-23T09:03:05;100100.97;;;9.72;96.49
57859;BME280;49153;45.568;11.894;2022-11-23T09:05:30;100109.34;;;9.78;96.93
57859;BME280;49153;45.568;11.894;2022-11-23T09:07:59;100118.69;;;9.93;97.12
57859;BME280;49153;45.568;11.894;2022-11-23T09:10:25;100115.22;;;9.92;96.77
57859;BME280;49153;45.568;11.894;2022-11-23T09:12:51;100124.91;;;10.03;96.65
57859;BME280;49153;45.568;11.894;2022-11-23T09:15:17;100128.00;;;10.08;95.47
57859;BME280;49153;45.568;11.894;2022-11-23T09:17:43;100138.31;;;10.22;95.46
57859;BME280;49153;45.568;11.894;2022-11-23T09:20:09;100130.69;;;10.19;94.20
57859;BME280;49153;45.568;11.894;2022-11-23T09:22:35;100134.25;;;10.29;94.83
57859;BME280;49153;45.568;11.894;2022-11-23T09:25:01;100140.94;;;10.44;94.33
57859;BME280;49153;45.568;11.894;2022-11-23T09:27:27;100145.94;;;10.58;94.50
57859;BME280;49153;45.568;11.894;2022-11-23T09:29:52;100147.59;;;10.71;94.95
57859;BME280;49153;45.568;11.894;2022-11-23T09:32:17;100145.16;;;10.79;94.74
57859;BME280;49153;45.568;11.894;2022-11-23T09:34:43;100149.56;;;10.89;91.79
57859;BME280;49153;45.568;11.894;2022-11-23T09:37:10;100150.31;;;10.80;89.88
57859;BME280;49153;45.568;11.894;2022-11-23T09:39:36;100147.69;;;10.80;89.88
57859;BME280;49153;45.568;11.894;2022-11-23T09:42:14;100159.03;;;10.92;89.12
57859;BME280;49153;45.568;11.894;2022-11-23T09:47:40;100157.72;;;11.18;85.91
57859;BME280;49153;45.568;11.894;2022-11-23T09:50:22;100151.69;;;11.27;87.44
57859;BME280;49153;45.568;11.894;2022-11-23T09:52:52;100148.03;;;11.39;88.27
57859;BME280;49153;45.568;11.894;2022-11-23T09:55:32;100151.56;;;11.50;86.81
57859;BME280;49153;45.568;11.894;2022-11-23T09:58:03;100160.38;;;11.60;85.77
57859;BME280;49153;45.568;11.894;2022-11-23T10:00:36;100161.53;;;11.67;82.66
57859;BME280;49153;45.568;11.894;2022-11-23T10:03:02;100162.22;;;11.69;85.84
57859;BME280;49153;45.568;11.894;2022-11-23T10:05:32;100160.53;;;11.79;84.67
57859;BME280;49153;45.568;11.894;2022-11-23T10:08:08;100151.53;;;11.91;84.94
57859;BME280;49153;45.568;11.894;2022-11-23T10:13:10;100161.91;;;12.04;83.96
57859;BME280;49153;45.568;11.894;2022-11-23T10:23:54;100151.72;;;12.30;80.50
57859;BME280;49153;45.568;11.894;2022-11-23T10:26:25;100145.59;;;12.39;82.22
57859;BME280;49153;45.568;11.894;2022-11-23T10:28:53;100142.53;;;12.34;81.60
57859;BME280;49153;45.568;11.894;2022-11-23T10:31:21;100153.00;;;12.45;82.99
57859;BME280;49153;45.568;11.894;2022-11-23T10:34:08;100142.97;;;12.48;81.64
57859;BME280;49153;45.568;11.894;2022-11-23T10:36:35;100142.88;;;12.59;81.15
57859;BME280;49153;45.568;11.894;2022-11-23T10:39:04;100145.09;;;12.64;80.42
57859;BME280;49153;45.568;11.894;2022-11-23T10:41:34;100139.00;;;12.73;79.42
57859;BME280;49153;45.568;11.894;2022-11-23T10:44:21;100151.00;;;12.87;80.16
57859;BME280;49153;45.568;11.894;2022-11-23T10:46:50;100143.88;;;12.87;80.65
57859;BME280;49153;45.568;11.894;2022-11-23T10:49:21;100139.97;;;12.91;78.97
57859;BME280;49153;45.568;11.894;2022-11-23T10:52:04;100139.84;;;13.02;80.60
57859;BME280;49153;45.568;11.894;2022-11-23T10:54:38;100141.28;;;13.16;79.66
57859;BME280;49153;45.568;11.894;2022-11-23T10:57:31;100138.06;;;13.22;79.64
57859;BME280;49153;45.568;11.894;2022-11-23T11:02:46;100133.44;;;13.43;79.33
57859;BME280;49153;45.568;11.894;2022-11-23T11:07:46;100140.13;;;13.57;77.27
57859;BME280;49153;45.568;11.894;2022-11-23T11:10:32;100149.75;;;13.58;74.72
57859;BME280;49153;45.568;11.894;2022-11-23T11:12:59;100118.09;;;13.47;76.11
57859;BME280;49153;45.568;11.894;2022-11-23T11:15:25;100120.59;;;13.48;75.61
57859;BME280;49153;45.568;11.894;2022-11-23T11:17:57;100109.84;;;13.50;74.86
57859;BME280;49153;45.568;11.894;2022-11-23T11:22:52;100132.97;;;13.67;74.75
57859;BME280;49153;45.568;11.894;2022-11-23T11:25:37;100135.59;;;13.77;72.94
57859;BME280;49153;45.568;11.894;2022-11-23T11:28:14;100118.56;;;13.79;73.91
57859;BME280;49153;45.568;11.894;2022-11-23T11:31:40;100128.56;;;13.85;70.33
57859;BME280;49153;45.568;11.894;2022-11-23T11:33:50;100121.31;;;13.87;72.20
57859;BME280;49153;45.568;11.894;2022-11-23T11:36:17;100108.78;;;13.89;69.60
57859;BME280;49153;45.568;11.894;2022-11-23T11:38:46;100102.06;;;13.85;70.06
57859;BME280;49153;45.568;11.894;2022-11-23T11:41:14;100118.19;;;14.02;71.17
57859;BME280;49153;45.568;11.894;2022-11-23T11:43:49;100123.69;;;14.18;70.63
57859;BME280;49153;45.568;11.894;2022-11-23T11:46:22;100130.63;;;14.28;70.58
57859;BME280;49153;45.568;11.894;2022-11-23T11:48:52;100128.81;;;14.29;69.60
57859;BME280;49153;45.568;11.894;2022-11-23T11:54:35;100117.66;;;14.25;68.49
57859;BME280;49153;45.568;11.894;2022-11-23T11:57:09;100118.91;;;14.31;69.13
57859;BME280;49153;45.568;11.894;2022-11-23T11:59:42;100118.06;;;14.30;68.35
57859;BME280;49153;45.568;11.894;2022-11-23T12:02:28;100117.91;;;14.32;68.98
57859;BME280;49153;45.568;11.894;2022-11-23T12:07:43;100114.97;;;14.35;67.90
57859;BME280;49153;45.568;11.894;2022-11-23T12:10:17;100110.59;;;14.44;69.76
57859;BME280;49153;45.568;11.894;2022-11-23T12:12:45;100105.16;;;14.45;69.31
57859;BME280;49153;45.568;11.894;2022-11-23T12:15:17;100107.13;;;14.43;67.93
57859;BME280;49153;45.568;11.894;2022-11-23T12:20:53;100101.66;;;14.45;68.02
57859;BME280;49153;45.568;11.894;2022-11-23T12:29:02;100109.94;;;14.59;68.16
57859;BME280;49153;45.568;11.894;2022-11-23T12:31:42;100110.94;;;14.58;67.49
57859;BME280;49153;45.568;11.894;2022-11-23T12:40:08;100108.50;;;14.47;66.10
57859;BME280;49153;45.568;11.894;2022-11-23T12:42:44;100111.44;;;14.44;65.38
57859;BME280;49153;45.568;11.894;2022-11-23T12:45:32;100117.50;;;14.36;66.17
57859;BME280;49153;45.568;11.894;2022-11-23T12:48:19;100127.53;;;14.33;67.39
57859;BME280;49153;45.568;11.894;2022-11-23T12:51:49;100117.53;;;14.27;66.68
57859;BME280;49153;45.568;11.894;2022-11-23T12:57:13;100117.28;;;14.20;67.41
57859;BME280;49153;45.568;11.894;2022-11-23T13:00:05;100115.66;;;14.10;67.21
57859;BME280;49153;45.568;11.894;2022-11-23T13:10:57;100113.66;;;14.12;67.56
57859;BME280;49153;45.568;11.894;2022-11-23T13:16:27;100110.81;;;14.23;66.12
57859;BME280;49153;45.568;11.894;2022-11-23T13:19:29;100120.31;;;14.25;65.63
57859;BME280;49153;45.568;11.894;2022-11-23T13:21:58;100113.19;;;14.26;65.55
57859;BME280;49153;45.568;11.894;2022-11-23T13:24:28;100120.56;;;14.32;66.59
57859;BME280;49153;45.568;11.894;2022-11-23T13:42:50;100117.00;;;14.51;65.90
57859;BME280;49153;45.568;11.894;2022-11-23T13:50:33;100115.09;;;14.43;63.40
57859;BME280;49153;45.568;11.894;2022-11-23T13:53:00;100124.59;;;14.36;63.98
57859;BME280;49153;45.568;11.894;2022-11-23T13:55:37;100107.13;;;14.33;64.81
57859;BME280;49153;45.568;11.894;2022-11-23T13:58:36;100126.53;;;14.44;64.29
57859;BME280;49153;45.568;11.894;2022-11-23T14:01:02;100128.75;;;14.48;65.51
57859;BME280;49153;45.568;11.894;2022-11-23T14:03:51;100131.63;;;14.55;65.42
57859;BME280;49153;45.568;11.894;2022-11-23T14:20:19;100141.00;;;14.76;64.85
57859;BME280;49153;45.568;11.894;2022-11-23T14:36:53;100148.19;;;14.49;65.66
57859;BME280;49153;45.568;11.894;2022-11-23T14:42:03;100155.34;;;14.29;65.69
57859;BME280;49153;45.568;11.894;2022-11-23T14:44:33;100144.34;;;14.24;66.08
57859;BME280;49153;45.568;11.894;2022-11-23T14:47:06;100157.16;;;14.28;66.41
57859;BME280;49153;45.568;11.894;2022-11-23T14:49:32;100147.97;;;14.23;66.81
57859;BME280;49153;45.568;11.894;2022-11-23T14:51:58;100160.56;;;14.21;66.26
57859;BME280;49153;45.568;11.894;2022-11-23T14:54:25;100163.50;;;14.18;66.78